sensor_id;sensor_type;location;lat;lon;timestamp;P1;durP1;ratioP1;P2;durP2;ratioP2
46899;SDS011;32647;49.382;7.078;2022-08-25T00:02:05;5.78;;;4.45;;
46899;SDS011;32647;49.382;7.078;2022-08-25T00:04:52;7.90;;;4.50;;
46899;SDS011;32647;49.382;7.078;2022-08-25T00:07:39;5.55;;;4.45;;
46899;SDS011;32647;49.382;7.078;2022-08-25T00:10:25;5.85;;;4.00;;
46899;SDS011;32647;49.382;7.078;2022-08-25T00:13:11;5.78;;;4.53;;
46899;SDS011;32647;49.382;7.078;2022-08-25T00:15:57;5.18;;;4.50;;
46899;SDS011;32647;49.382;7.078;2022-08-25T00:18:44;6.10;;;4.10;;
46899;SDS011;32647;49.382;7.078;2022-08-25T00:21:32;6.05;;;4.32;;
46899;SDS011;32647;49.382;7.078;2022-08-25T00:24:19;10.38;;;4.82;;
46899;SDS011;32647;49.382;7.078;2022-08-25T00:27:06;4.93;;;4.40;;
46899;SDS011;32647;49.382;7.078;2022-08-25T00:29:52;4.53;;;4.13;;
46899;SDS011;32647;49.382;7.078;2022-08-25T00:32:38;5.25;;;4.30;;
46899;SDS011;32647;49.382;7.078;2022-08-25T00:35:25;7.88;;;4.57;;
46899;SDS011;32647;49.382;7.078;2022-08-25T00:38:11;7.95;;;5.25;;
46899;SDS011;32647;49.382;7.078;2022-08-25T00:40:58;6.07;;;4.40;;
46899;SDS011;32647;49.382;7.078;2022-08-25T00:43:57;6.22;;;4.40;;
46899;SDS011;32647;49.382;7.078;2022-08-25T00:46:46;5.05;;;4.55;;
46899;SDS011;32647;49.382;7.078;2022-08-25T00:49:38;6.00;;;4.43;;
46899;SDS011;32647;49.382;7.078;2022-08-25T00:52:31;4.93;;;4.22;;
46899;SDS011;32647;49.382;7.078;2022-08-25T00:55:23;5.28;;;4.75;;
46899;SDS011;32647;49.382;7.078;2022-08-25T00:58:15;5.53;;;4.78;;
46899;SDS011;32647;49.382;7.078;2022-08-25T01:01:07;4.95;;;4.43;;
46899;SDS011;32647;49.382;7.078;2022-08-25T01:03:53;5.65;;;4.68;;
46899;SDS011;32647;49.382;7.078;2022-08-25T01:06:40;4.45;;;4.05;;
46899;SDS011;32647;49.382;7.078;2022-08-25T01:09:29;6.25;;;4.53;;
46899;SDS011;32647;49.382;7.078;2022-08-25T01:12:16;6.07;;;4.00;;
46899;SDS011;32647;49.382;7.078;2022-08-25T01:15:03;5.75;;;4.40;;
46899;SDS011;32647;49.382;7.078;2022-08-25T01:17:52;8.80;;;4.28;;
46899;SDS011;32647;49.382;7.078;2022-08-25T01:20:40;5.65;;;4.60;;
46899;SDS011;32647;49.382;7.078;2022-08-25T01:23:26;7.28;;;4.32;;
46899;SDS011;32647;49.382;7.078;2022-08-25T01:26:14;6.28;;;3.92;;
46899;SDS011;32647;49.382;7.078;2022-08-25T01:29:05;6.18;;;4.50;;
46899;SDS011;32647;49.382;7.078;2022-08-25T01:32:11;8.48;;;4.65;;
46899;SDS011;32647;49.382;7.078;2022-08-25T01:34:59;5.63;;;4.55;;
46899;SDS011;32647;49.382;7.078;2022-08-25T01:37:45;6.68;;;4.80;;
46899;SDS011;32647;49.382;7.078;2022-08-25T01:40:32;6.20;;;4.35;;
46899;SDS011;32647;49.382;7.078;2022-08-25T01:43:21;6.03;;;4.60;;
46899;SDS011;32647;49.382;7.078;2022-08-25T01:46:21;5.75;;;4.72;;
46899;SDS011;32647;49.382;7.078;2022-08-25T01:49:07;5.75;;;4.55;;
46899;SDS011;32647;49.382;7.078;2022-08-25T01:51:56;6.75;;;4.40;;
46899;SDS011;32647;49.382;7.078;2022-08-25T01:54:46;5.65;;;5.05;;
46899;SDS011;32647;49.382;7.078;2022-08-25T01:57:32;5.57;;;4.30;;
46899;SDS011;32647;49.382;7.078;2022-08-25T02:00:20;5.35;;;4.30;;
46899;SDS011;32647;49.382;7.078;2022-08-25T02:03:06;5.00;;;4.60;;
46899;SDS011;32647;49.382;7.078;2022-08-25T02:05:53;6.60;;;4.32;;
46899;SDS011;32647;49.382;7.078;2022-08-25T02:08:39;8.57;;;4.03;;
46899;SDS011;32647;49.382;7.078;2022-08-25T02:11:26;9.05;;;4.68;;
46899;SDS011;32647;49.382;7.078;2022-08-25T02:14:13;7.63;;;5.00;;
46899;SDS011;32647;49.382;7.078;2022-08-25T02:17:00;4.70;;;4.20;;
46899;SDS011;32647;49.382;7.078;2022-08-25T02:19:45;5.30;;;4.80;;
46899;SDS011;32647;49.382;7.078;2022-08-25T02:22:31;5.13;;;4.63;;
46899;SDS011;32647;49.382;7.078;2022-08-25T02:25:18;5.55;;;5.00;;
46899;SDS011;32647;49.382;7.078;2022-08-25T02:28:05;6.15;;;4.78;;
46899;SDS011;32647;49.382;7.078;2022-08-25T02:30:52;4.63;;;4.22;;
46899;SDS011;32647;49.382;7.078;2022-08-25T02:33:38;5.50;;;4.43;;
46899;SDS011;32647;49.382;7.078;2022-08-25T02:36:24;6.00;;;4.68;;
46899;SDS011;32647;49.382;7.078;2022-08-25T02:39:11;0.20;;;0.20;;
46899;SDS011;32647;49.382;7.078;2022-08-25T02:41:57;5.43;;;4.93;;
46899;SDS011;32647;49.382;7.078;2022-08-25T02:44:44;0.20;;;0.20;;
46899;SDS011;32647;49.382;7.078;2022-08-25T02:47:30;6.55;;;5.22;;
46899;SDS011;32647;49.382;7.078;2022-08-25T02:50:16;5.78;;;4.53;;
46899;SDS011;32647;49.382;7.078;2022-08-25T02:53:02;5.38;;;4.60;;
46899;SDS011;32647;49.382;7.078;2022-08-25T02:55:49;8.15;;;4.40;;
46899;SDS011;32647;49.382;7.078;2022-08-25T02:58:35;5.68;;;4.32;;
46899;SDS011;32647;49.382;7.078;2022-08-25T03:01:22;1999.90;;;999.90;;
46899;SDS011;32647;49.382;7.078;2022-08-25T03:04:08;644.50;;;367.58;;
46899;SDS011;32647;49.382;7.078;2022-08-25T03:06:54;4.50;;;3.90;;
46899;SDS011;32647;49.382;7.078;2022-08-25T03:09:41;6.15;;;5.10;;
46899;SDS011;32647;49.382;7.078;2022-08-25T03:12:27;13.55;;;4.28;;
46899;SDS011;32647;49.382;7.078;2022-08-25T03:15:14;5.18;;;4.07;;
46899;SDS011;32647;49.382;7.078;2022-08-25T03:18:02;5.55;;;4.47;;
46899;SDS011;32647;49.382;7.078;2022-08-25T03:20:49;5.60;;;3.78;;
46899;SDS011;32647;49.382;7.078;2022-08-25T03:23:35;9.80;;;4.45;;
46899;SDS011;32647;49.382;7.078;2022-08-25T03:26:21;4.28;;;3.85;;
46899;SDS011;32647;49.382;7.078;2022-08-25T03:29:30;5.90;;;4.73;;
46899;SDS011;32647;49.382;7.078;2022-08-25T03:32:17;7.55;;;4.88;;
46899;SDS011;32647;49.382;7.078;2022-08-25T03:35:03;5.95;;;4.80;;
46899;SDS011;32647;49.382;7.078;2022-08-25T03:37:49;5.45;;;4.20;;
46899;SDS011;32647;49.382;7.078;2022-08-25T03:40:39;4.63;;;4.07;;
46899;SDS011;32647;49.382;7.078;2022-08-25T03:43:25;9.90;;;4.03;;
46899;SDS011;32647;49.382;7.078;2022-08-25T03:49:08;4.07;;;3.67;;
46899;SDS011;32647;49.382;7.078;2022-08-25T03:51:57;6.72;;;3.60;;
46899;SDS011;32647;49.382;7.078;2022-08-25T03:54:44;7.05;;;4.68;;
46899;SDS011;32647;49.382;7.078;2022-08-25T03:57:30;5.38;;;3.60;;
46899;SDS011;32647;49.382;7.078;2022-08-25T04:00:16;4.60;;;3.80;;
46899;SDS011;32647;49.382;7.078;2022-08-25T04:03:02;5.00;;;4.10;;
46899;SDS011;32647;49.382;7.078;2022-08-25T04:05:48;17.25;;;9.93;;
46899;SDS011;32647;49.382;7.078;2022-08-25T04:08:35;4.57;;;3.20;;
46899;SDS011;32647;49.382;7.078;2022-08-25T04:11:21;5.22;;;3.50;;
46899;SDS011;32647;49.382;7.078;2022-08-25T04:14:07;5.13;;;3.70;;
46899;SDS011;32647;49.382;7.078;2022-08-25T04:16:53;4.68;;;3.30;;
46899;SDS011;32647;49.382;7.078;2022-08-25T04:19:39;4.63;;;3.83;;
46899;SDS011;32647;49.382;7.078;2022-08-25T04:22:25;4.18;;;3.58;;
46899;SDS011;32647;49.382;7.078;2022-08-25T04:25:11;5.10;;;3.92;;
46899;SDS011;32647;49.382;7.078;2022-08-25T04:27:58;5.53;;;3.92;;
46899;SDS011;32647;49.382;7.078;2022-08-25T04:30:44;5.03;;;3.70;;
46899;SDS011;32647;49.382;7.078;2022-08-25T04:33:29;8.65;;;3.60;;
46899;SDS011;32647;49.382;7.078;2022-08-25T04:36:16;3.95;;;3.33;;
46899;SDS011;32647;49.382;7.078;2022-08-25T04:39:03;5.25;;;3.33;;
46899;SDS011;32647;49.382;7.078;2022-08-25T04:41:49;5.88;;;3.47;;
46899;SDS011;32647;49.382;7.078;2022-08-25T04:44:36;5.45;;;3.50;;
46899;SDS011;32647;49.382;7.078;2022-08-25T04:47:22;5.10;;;3.70;;
46899;SDS011;32647;49.382;7.078;2022-08-25T04:50:08;5.65;;;3.55;;
46899;SDS011;32647;49.382;7.078;2022-08-25T04:52:55;6.47;;;4.00;;
46899;SDS011;32647;49.382;7.078;2022-08-25T04:55:45;6.55;;;3.50;;
46899;SDS011;32647;49.382;7.078;2022-08-25T04:58:32;5.25;;;3.67;;
46899;SDS011;32647;49.382;7.078;2022-08-25T05:01:20;5.45;;;3.40;;
46899;SDS011;32647;49.382;7.078;2022-08-25T05:04:09;4.57;;;3.40;;
46899;SDS011;32647;49.382;7.078;2022-08-25T05:06:56;5.82;;;3.58;;
46899;SDS011;32647;49.382;7.078;2022-08-25T05:09:43;4.70;;;3.80;;
46899;SDS011;32647;49.382;7.078;2022-08-25T05:12:29;5.28;;;3.42;;
46899;SDS011;32647;49.382;7.078;2022-08-25T05:15:15;4.70;;;3.78;;
46899;SDS011;32647;49.382;7.078;2022-08-25T05:18:21;6.95;;;3.63;;
46899;SDS011;32647;49.382;7.078;2022-08-25T05:21:12;4.72;;;3.40;;
46899;SDS011;32647;49.382;7.078;2022-08-25T05:24:02;4.40;;;3.38;;
46899;SDS011;32647;49.382;7.078;2022-08-25T05:26:49;4.18;;;2.97;;
46899;SDS011;32647;49.382;7.078;2022-08-25T05:29:35;3.90;;;2.85;;
46899;SDS011;32647;49.382;7.078;2022-08-25T05:32:21;8.98;;;3.58;;
46899;SDS011;32647;49.382;7.078;2022-08-25T05:35:07;5.93;;;3.88;;
46899;SDS011;32647;49.382;7.078;2022-08-25T05:37:53;4.45;;;3.00;;
46899;SDS011;32647;49.382;7.078;2022-08-25T05:40:41;4.47;;;3.35;;
46899;SDS011;32647;49.382;7.078;2022-08-25T05:43:27;4.85;;;3.35;;
46899;SDS011;32647;49.382;7.078;2022-08-25T05:46:14;3.60;;;3.30;;
46899;SDS011;32647;49.382;7.078;2022-08-25T05:49:02;8.40;;;4.30;;
46899;SDS011;32647;49.382;7.078;2022-08-25T05:51:48;4.65;;;4.10;;
46899;SDS011;32647;49.382;7.078;2022-08-25T05:54:34;4.97;;;3.60;;
46899;SDS011;32647;49.382;7.078;2022-08-25T05:57:20;5.80;;;4.28;;
46899;SDS011;32647;49.382;7.078;2022-08-25T06:00:06;7.55;;;4.95;;
46899;SDS011;32647;49.382;7.078;2022-08-25T06:02:54;5.30;;;3.72;;
46899;SDS011;32647;49.382;7.078;2022-08-25T06:05:40;8.23;;;4.18;;
46899;SDS011;32647;49.382;7.078;2022-08-25T06:08:26;4.65;;;3.75;;
46899;SDS011;32647;49.382;7.078;2022-08-25T06:11:16;3.75;;;3.30;;
46899;SDS011;32647;49.382;7.078;2022-08-25T06:14:03;7.13;;;3.25;;
46899;SDS011;32647;49.382;7.078;2022-08-25T06:16:49;4.10;;;2.90;;
46899;SDS011;32647;49.382;7.078;2022-08-25T06:19:36;4.75;;;3.22;;
46899;SDS011;32647;49.382;7.078;2022-08-25T06:22:23;5.75;;;3.50;;
46899;SDS011;32647;49.382;7.078;2022-08-25T06:25:12;3.63;;;3.10;;
46899;SDS011;32647;49.382;7.078;2022-08-25T06:28:00;6.30;;;3.50;;
46899;SDS011;32647;49.382;7.078;2022-08-25T06:30:46;4.93;;;2.83;;
46899;SDS011;32647;49.382;7.078;2022-08-25T06:33:32;12.68;;;5.20;;
46899;SDS011;32647;49.382;7.078;2022-08-25T06:36:18;3.83;;;2.42;;
46899;SDS011;32647;49.382;7.078;2022-08-25T06:39:05;6.35;;;2.70;;
46899;SDS011;32647;49.382;7.078;2022-08-25T06:41:52;2.42;;;2.22;;
46899;SDS011;32647;49.382;7.078;2022-08-25T06:44:39;3.13;;;2.30;;
46899;SDS011;32647;49.382;7.078;2022-08-25T06:47:25;3.00;;;2.20;;
46899;SDS011;32647;49.382;7.078;2022-08-25T06:50:12;4.18;;;2.40;;
46899;SDS011;32647;49.382;7.078;2022-08-25T06:52:58;2.53;;;2.33;;
46899;SDS011;32647;49.382;7.078;2022-08-25T06:58:42;2.03;;;1.83;;
46899;SDS011;32647;49.382;7.078;2022-08-25T07:01:28;3.10;;;1.88;;
46899;SDS011;32647;49.382;7.078;2022-08-25T07:04:15;1.98;;;1.85;;
46899;SDS011;32647;49.382;7.078;2022-08-25T07:07:02;6.07;;;3.72;;
46899;SDS011;32647;49.382;7.078;2022-08-25T07:09:48;4.90;;;3.90;;
46899;SDS011;32647;49.382;7.078;2022-08-25T07:12:34;4.35;;;3.95;;
46899;SDS011;32647;49.382;7.078;2022-08-25T07:15:20;6.00;;;3.70;;
46899;SDS011;32647;49.382;7.078;2022-08-25T07:18:06;4.85;;;3.72;;
46899;SDS011;32647;49.382;7.078;2022-08-25T07:20:52;7.22;;;3.90;;
46899;SDS011;32647;49.382;7.078;2022-08-25T07:23:38;5.30;;;3.40;;
46899;SDS011;32647;49.382;7.078;2022-08-25T07:26:27;6.10;;;3.58;;
46899;SDS011;32647;49.382;7.078;2022-08-25T07:29:16;5.75;;;3.47;;
46899;SDS011;32647;49.382;7.078;2022-08-25T07:32:05;4.68;;;3.38;;
46899;SDS011;32647;49.382;7.078;2022-08-25T07:34:51;6.43;;;3.85;;
46899;SDS011;32647;49.382;7.078;2022-08-25T07:37:55;6.82;;;3.45;;
46899;SDS011;32647;49.382;7.078;2022-08-25T07:40:42;4.93;;;3.70;;
46899;SDS011;32647;49.382;7.078;2022-08-25T07:43:28;4.45;;;3.65;;
46899;SDS011;32647;49.382;7.078;2022-08-25T07:46:14;6.50;;;3.45;;
46899;SDS011;32647;49.382;7.078;2022-08-25T07:49:00;4.00;;;3.47;;
46899;SDS011;32647;49.382;7.078;2022-08-25T07:51:46;4.43;;;3.35;;
46899;SDS011;32647;49.382;7.078;2022-08-25T07:54:33;5.47;;;3.72;;
46899;SDS011;32647;49.382;7.078;2022-08-25T07:57:20;9.35;;;3.60;;
46899;SDS011;32647;49.382;7.078;2022-08-25T08:00:08;4.45;;;4.05;;
46899;SDS011;32647;49.382;7.078;2022-08-25T08:02:57;6.40;;;3.65;;
46899;SDS011;32647;49.382;7.078;2022-08-25T08:05:43;6.50;;;3.65;;
46899;SDS011;32647;49.382;7.078;2022-08-25T08:08:29;4.88;;;4.05;;
46899;SDS011;32647;49.382;7.078;2022-08-25T08:11:20;4.20;;;3.70;;
46899;SDS011;32647;49.382;7.078;2022-08-25T08:14:18;5.97;;;3.83;;
46899;SDS011;32647;49.382;7.078;2022-08-25T08:17:05;5.93;;;4.85;;
46899;SDS011;32647;49.382;7.078;2022-08-25T08:19:52;4.28;;;3.88;;
46899;SDS011;32647;49.382;7.078;2022-08-25T08:22:39;6.18;;;4.30;;
46899;SDS011;32647;49.382;7.078;2022-08-25T08:25:26;5.53;;;3.83;;
46899;SDS011;32647;49.382;7.078;2022-08-25T08:28:12;5.28;;;4.15;;
46899;SDS011;32647;49.382;7.078;2022-08-25T08:30:58;4.38;;;3.97;;
46899;SDS011;32647;49.382;7.078;2022-08-25T08:33:45;5.60;;;4.15;;
46899;SDS011;32647;49.382;7.078;2022-08-25T08:36:32;4.95;;;3.72;;
46899;SDS011;32647;49.382;7.078;2022-08-25T08:39:19;4.95;;;4.15;;
46899;SDS011;32647;49.382;7.078;2022-08-25T08:51:34;18.02;;;11.70;;
46899;SDS011;32647;49.382;7.078;2022-08-25T08:54:33;5.25;;;4.20;;
46899;SDS011;32647;49.382;7.078;2022-08-25T08:57:23;8.13;;;4.25;;
46899;SDS011;32647;49.382;7.078;2022-08-25T09:00:13;6.32;;;4.25;;
46899;SDS011;32647;49.382;7.078;2022-08-25T09:03:07;5.30;;;3.90;;
46899;SDS011;32647;49.382;7.078;2022-08-25T09:06:05;5.50;;;3.90;;
46899;SDS011;32647;49.382;7.078;2022-08-25T09:08:56;6.88;;;3.80;;
46899;SDS011;32647;49.382;7.078;2022-08-25T09:12:29;3.92;;;3.63;;
46899;SDS011;32647;49.382;7.078;2022-08-25T09:18:05;5.88;;;3.67;;
46899;SDS011;32647;49.382;7.078;2022-08-25T09:27:22;4.68;;;3.28;;
46899;SDS011;32647;49.382;7.078;2022-08-25T09:30:25;5.90;;;2.88;;
46899;SDS011;32647;49.382;7.078;2022-08-25T09:33:18;4.53;;;3.08;;
46899;SDS011;32647;49.382;7.078;2022-08-25T09:36:06;5.28;;;3.30;;
46899;SDS011;32647;49.382;7.078;2022-08-25T09:38:52;3.92;;;3.38;;
46899;SDS011;32647;49.382;7.078;2022-08-25T09:41:41;7.03;;;3.92;;
46899;SDS011;32647;49.382;7.078;2022-08-25T09:44:39;6.57;;;3.63;;
46899;SDS011;32647;49.382;7.078;2022-08-25T09:47:29;5.20;;;3.50;;
46899;SDS011;32647;49.382;7.078;2022-08-25T09:50:17;5.85;;;3.58;;
46899;SDS011;32647;49.382;7.078;2022-08-25T09:53:11;4.93;;;3.30;;
46899;SDS011;32647;49.382;7.078;2022-08-25T09:56:00;4.57;;;3.70;;
46899;SDS011;32647;49.382;7.078;2022-08-25T09:58:51;5.60;;;3.42;;
46899;SDS011;32647;49.382;7.078;2022-08-25T10:01:46;4.60;;;3.58;;
46899;SDS011;32647;49.382;7.078;2022-08-25T10:04:35;5.05;;;4.07;;
46899;SDS011;32647;49.382;7.078;2022-08-25T10:07:34;6.85;;;3.90;;
46899;SDS011;32647;49.382;7.078;2022-08-25T10:10:28;6.85;;;3.50;;
46899;SDS011;32647;49.382;7.078;2022-08-25T10:13:18;5.45;;;4.05;;
46899;SDS011;32647;49.382;7.078;2022-08-25T10:16:10;3.88;;;3.55;;
46899;SDS011;32647;49.382;7.078;2022-08-25T10:22:24;3.97;;;3.58;;
46899;SDS011;32647;49.382;7.078;2022-08-25T10:25:18;5.53;;;3.30;;
46899;SDS011;32647;49.382;7.078;2022-08-25T10:28:16;5.13;;;3.38;;
46899;SDS011;32647;49.382;7.078;2022-08-25T10:40:39;4.78;;;3.60;;
46899;SDS011;32647;49.382;7.078;2022-08-25T10:50:26;5.28;;;3.45;;
46899;SDS011;32647;49.382;7.078;2022-08-25T10:53:54;3.33;;;2.40;;
46899;SDS011;32647;49.382;7.078;2022-08-25T11:00:09;3.97;;;2.40;;
46899;SDS011;32647;49.382;7.078;2022-08-25T11:05:58;3.92;;;2.47;;
46899;SDS011;32647;49.382;7.078;2022-08-25T11:08:50;2.63;;;2.20;;
46899;SDS011;32647;49.382;7.078;2022-08-25T11:11:48;3.10;;;2.35;;
46899;SDS011;32647;49.382;7.078;2022-08-25T11:15:12;3.17;;;2.65;;
46899;SDS011;32647;49.382;7.078;2022-08-25T11:18:26;3.53;;;2.10;;
46899;SDS011;32647;49.382;7.078;2022-08-25T11:21:21;3.25;;;2.75;;
46899;SDS011;32647;49.382;7.078;2022-08-25T11:27:20;3.13;;;2.47;;
46899;SDS011;32647;49.382;7.078;2022-08-25T11:30:09;2.88;;;2.58;;
46899;SDS011;32647;49.382;7.078;2022-08-25T11:32:56;3.72;;;2.35;;
46899;SDS011;32647;49.382;7.078;2022-08-25T11:47:58;2.28;;;2.00;;
46899;SDS011;32647;49.382;7.078;2022-08-25T11:50:59;3.05;;;2.53;;
46899;SDS011;32647;49.382;7.078;2022-08-25T12:08:45;6.38;;;2.72;;
46899;SDS011;32647;49.382;7.078;2022-08-25T12:14:42;5.40;;;2.63;;
46899;SDS011;32647;49.382;7.078;2022-08-25T12:17:36;2.15;;;1.95;;
46899;SDS011;32647;49.382;7.078;2022-08-25T12:20:49;2.10;;;1.90;;
46899;SDS011;32647;49.382;7.078;2022-08-25T12:23:39;2.42;;;2.22;;
46899;SDS011;32647;49.382;7.078;2022-08-25T12:26:38;2.17;;;1.98;;
46899;SDS011;32647;49.382;7.078;2022-08-25T12:29:28;2.97;;;2.30;;
46899;SDS011;32647;49.382;7.078;2022-08-25T12:38:48;5.65;;;1.70;;
46899;SDS011;32647;49.382;7.078;2022-08-25T12:44:16;2.40;;;1.63;;
46899;SDS011;32647;49.382;7.078;2022-08-25T12:53:21;4.03;;;2.22;;
46899;SDS011;32647;49.382;7.078;2022-08-25T12:59:52;3.40;;;2.28;;
46899;SDS011;32647;49.382;7.078;2022-08-25T13:14:56;2.65;;;1.65;;
46899;SDS011;32647;49.382;7.078;2022-08-25T13:17:44;3.70;;;1.92;;
46899;SDS011;32647;49.382;7.078;2022-08-25T13:20:30;3.28;;;2.05;;
46899;SDS011;32647;49.382;7.078;2022-08-25T13:23:21;14.77;;;2.45;;
46899;SDS011;32647;49.382;7.078;2022-08-25T13:26:15;2.65;;;2.13;;
46899;SDS011;32647;49.382;7.078;2022-08-25T13:31:57;4.45;;;2.80;;
46899;SDS011;32647;49.382;7.078;2022-08-25T13:35:10;4.13;;;2.70;;
46899;SDS011;32647;49.382;7.078;2022-08-25T13:38:12;15.23;;;2.90;;
46899;SDS011;32647;49.382;7.078;2022-08-25T13:41:03;3.55;;;2.70;;
46899;SDS011;32647;49.382;7.078;2022-08-25T13:43:50;3.85;;;2.65;;
46899;SDS011;32647;49.382;7.078;2022-08-25T13:46:39;3.22;;;2.45;;
46899;SDS011;32647;49.382;7.078;2022-08-25T13:49:26;2.58;;;2.38;;
46899;SDS011;32647;49.382;7.078;2022-08-25T13:52:31;4.78;;;3.13;;
46899;SDS011;32647;49.382;7.078;2022-08-25T13:55:40;4.28;;;3.20;;
46899;SDS011;32647;49.382;7.078;2022-08-25T13:58:37;3.72;;;3.08;;
46899;SDS011;32647;49.382;7.078;2022-08-25T14:01:29;3.97;;;3.50;;
46899;SDS011;32647;49.382;7.078;2022-08-25T14:04:19;4.97;;;3.50;;
46899;SDS011;32647;49.382;7.078;2022-08-25T14:07:35;3.78;;;3.38;;
46899;SDS011;32647;49.382;7.078;2022-08-25T14:14:05;3.60;;;3.30;;
46899;SDS011;32647;49.382;7.078;2022-08-25T14:16:58;3.80;;;3.38;;
46899;SDS011;32647;49.382;7.078;2022-08-25T14:19:53;5.88;;;3.42;;
46899;SDS011;32647;49.382;7.078;2022-08-25T14:22:43;3.90;;;3.45;;
46899;SDS011;32647;49.382;7.078;2022-08-25T14:25:29;3.72;;;3.20;;
46899;SDS011;32647;49.382;7.078;2022-08-25T14:28:17;3.65;;;3.03;;
46899;SDS011;32647;49.382;7.078;2022-08-25T14:31:09;4.38;;;3.17;;
46899;SDS011;32647;49.382;7.078;2022-08-25T14:34:09;3.38;;;3.08;;
46899;SDS011;32647;49.382;7.078;2022-08-25T14:36:59;3.80;;;3.40;;
46899;SDS011;32647;49.382;7.078;2022-08-25T14:39:45;4.70;;;3.30;;
46899;SDS011;32647;49.382;7.078;2022-08-25T14:42:31;4.18;;;3.17;;
46899;SDS011;32647;49.382;7.078;2022-08-25T14:45:18;4.38;;;3.13;;
46899;SDS011;32647;49.382;7.078;2022-08-25T14:48:04;5.05;;;3.40;;
46899;SDS011;32647;49.382;7.078;2022-08-25T14:50:53;9.23;;;3.40;;
46899;SDS011;32647;49.382;7.078;2022-08-25T14:53:42;5.40;;;3.40;;
46899;SDS011;32647;49.382;7.078;2022-08-25T14:56:28;4.43;;;3.30;;
46899;SDS011;32647;49.382;7.078;2022-08-25T14:59:15;3.45;;;2.90;;
46899;SDS011;32647;49.382;7.078;2022-08-25T15:02:01;4.25;;;3.20;;
46899;SDS011;32647;49.382;7.078;2022-08-25T15:04:52;4.60;;;3.50;;
46899;SDS011;32647;49.382;7.078;2022-08-25T15:10:46;4.15;;;3.70;;
46899;SDS011;32647;49.382;7.078;2022-08-25T15:13:31;6.10;;;3.47;;
46899;SDS011;32647;49.382;7.078;2022-08-25T15:16:22;5.15;;;3.60;;
46899;SDS011;32647;49.382;7.078;2022-08-25T15:19:14;3.70;;;3.40;;
46899;SDS011;32647;49.382;7.078;2022-08-25T15:22:01;3.83;;;3.15;;
46899;SDS011;32647;49.382;7.078;2022-08-25T15:24:47;4.05;;;3.55;;
46899;SDS011;32647;49.382;7.078;2022-08-25T15:27:33;3.72;;;3.38;;
46899;SDS011;32647;49.382;7.078;2022-08-25T15:30:19;4.00;;;3.05;;
46899;SDS011;32647;49.382;7.078;2022-08-25T15:33:06;3.50;;;3.20;;
46899;SDS011;32647;49.382;7.078;2022-08-25T15:35:52;4.05;;;3.22;;
46899;SDS011;32647;49.382;7.078;2022-08-25T15:38:38;4.22;;;3.25;;
46899;SDS011;32647;49.382;7.078;2022-08-25T15:41:26;3.33;;;3.03;;
46899;SDS011;32647;49.382;7.078;2022-08-25T15:44:13;5.93;;;3.75;;
46899;SDS011;32647;49.382;7.078;2022-08-25T15:46:59;4.72;;;3.30;;
46899;SDS011;32647;49.382;7.078;2022-08-25T15:49:45;4.80;;;3.17;;
46899;SDS011;32647;49.382;7.078;2022-08-25T15:52:31;2.75;;;2.05;;
46899;SDS011;32647;49.382;7.078;2022-08-25T15:55:17;3.50;;;2.28;;
46899;SDS011;32647;49.382;7.078;2022-08-25T15:58:04;2.80;;;2.00;;
46899;SDS011;32647;49.382;7.078;2022-08-25T16:00:50;2.42;;;2.03;;
46899;SDS011;32647;49.382;7.078;2022-08-25T16:03:36;2.28;;;2.08;;
46899;SDS011;32647;49.382;7.078;2022-08-25T16:06:24;2.72;;;2.28;;
46899;SDS011;32647;49.382;7.078;2022-08-25T16:09:11;2.13;;;1.95;;
46899;SDS011;32647;49.382;7.078;2022-08-25T16:11:57;1.83;;;1.73;;
46899;SDS011;32647;49.382;7.078;2022-08-25T16:14:43;3.08;;;1.90;;
46899;SDS011;32647;49.382;7.078;2022-08-25T16:17:33;2.38;;;2.05;;
46899;SDS011;32647;49.382;7.078;2022-08-25T16:20:19;2.30;;;2.10;;
46899;SDS011;32647;49.382;7.078;2022-08-25T16:23:07;2.00;;;1.80;;
46899;SDS011;32647;49.382;7.078;2022-08-25T16:25:53;2.42;;;2.22;;
46899;SDS011;32647;49.382;7.078;2022-08-25T16:28:39;2.50;;;2.20;;
46899;SDS011;32647;49.382;7.078;2022-08-25T16:31:27;3.90;;;2.28;;
46899;SDS011;32647;49.382;7.078;2022-08-25T16:34:14;3.88;;;2.60;;
46899;SDS011;32647;49.382;7.078;2022-08-25T16:37:00;2.47;;;2.28;;
46899;SDS011;32647;49.382;7.078;2022-08-25T16:39:50;3.30;;;2.13;;
46899;SDS011;32647;49.382;7.078;2022-08-25T16:42:37;3.38;;;2.45;;
46899;SDS011;32647;49.382;7.078;2022-08-25T16:45:23;3.38;;;2.42;;
46899;SDS011;32647;49.382;7.078;2022-08-25T16:48:10;2.42;;;2.08;;
46899;SDS011;32647;49.382;7.078;2022-08-25T16:50:56;2.90;;;2.55;;
46899;SDS011;32647;49.382;7.078;2022-08-25T16:53:42;3.53;;;2.38;;
46899;SDS011;32647;49.382;7.078;2022-08-25T16:56:48;4.07;;;2.40;;
46899;SDS011;32647;49.382;7.078;2022-08-25T16:59:34;3.20;;;2.47;;
46899;SDS011;32647;49.382;7.078;2022-08-25T17:02:21;2.90;;;2.30;;
46899;SDS011;32647;49.382;7.078;2022-08-25T17:05:08;2.78;;;2.17;;
46899;SDS011;32647;49.382;7.078;2022-08-25T17:07:54;1999.90;;;999.90;;
46899;SDS011;32647;49.382;7.078;2022-08-25T17:11:03;1999.90;;;999.90;;
46899;SDS011;32647;49.382;7.078;2022-08-25T17:13:53;1999.90;;;999.90;;
46899;SDS011;32647;49.382;7.078;2022-08-25T17:16:44;1999.90;;;999.90;;
46899;SDS011;32647;49.382;7.078;2022-08-25T17:19:31;1999.90;;;999.90;;
46899;SDS011;32647;49.382;7.078;2022-08-25T17:22:17;1999.90;;;999.90;;
46899;SDS011;32647;49.382;7.078;2022-08-25T17:25:03;1999.90;;;999.90;;
46899;SDS011;32647;49.382;7.078;2022-08-25T17:27:50;1999.90;;;999.90;;
46899;SDS011;32647;49.382;7.078;2022-08-25T17:30:37;1999.90;;;999.90;;
46899;SDS011;32647;49.382;7.078;2022-08-25T17:33:23;1999.90;;;999.90;;
46899;SDS011;32647;49.382;7.078;2022-08-25T17:36:10;1999.90;;;999.90;;
46899;SDS011;32647;49.382;7.078;2022-08-25T17:38:57;1999.90;;;999.90;;
46899;SDS011;32647;49.382;7.078;2022-08-25T17:41:44;1999.90;;;999.90;;
46899;SDS011;32647;49.382;7.078;2022-08-25T17:44:30;1999.90;;;999.90;;
46899;SDS011;32647;49.382;7.078;2022-08-25T17:47:16;1999.90;;;999.90;;
46899;SDS011;32647;49.382;7.078;2022-08-25T17:50:02;1999.90;;;999.90;;
46899;SDS011;32647;49.382;7.078;2022-08-25T17:52:48;1999.90;;;999.90;;
46899;SDS011;32647;49.382;7.078;2022-08-25T17:55:35;1999.90;;;999.90;;
46899;SDS011;32647;49.382;7.078;2022-08-25T17:58:21;1999.90;;;999.90;;
46899;SDS011;32647;49.382;7.078;2022-08-25T18:01:13;1999.90;;;999.90;;
46899;SDS011;32647;49.382;7.078;2022-08-25T18:04:09;1999.90;;;999.90;;
46899;SDS011;32647;49.382;7.078;2022-08-25T18:06:56;1999.90;;;999.90;;
46899;SDS011;32647;49.382;7.078;2022-08-25T18:09:42;1999.90;;;999.90;;
46899;SDS011;32647;49.382;7.078;2022-08-25T18:12:28;1999.90;;;999.90;;
46899;SDS011;32647;49.382;7.078;2022-08-25T18:15:14;1999.90;;;999.90;;
46899;SDS011;32647;49.382;7.078;2022-08-25T18:18:00;1999.90;;;999.90;;
46899;SDS011;32647;49.382;7.078;2022-08-25T18:20:47;99.15;;;33.03;;
46899;SDS011;32647;49.382;7.078;2022-08-25T18:23:33;3.50;;;2.70;;
46899;SDS011;32647;49.382;7.078;2022-08-25T18:26:20;12.90;;;2.92;;
46899;SDS011;32647;49.382;7.078;2022-08-25T18:29:06;3.70;;;3.13;;
46899;SDS011;32647;49.382;7.078;2022-08-25T18:31:56;4.63;;;2.95;;
46899;SDS011;32647;49.382;7.078;2022-08-25T18:34:42;4.45;;;3.35;;
46899;SDS011;32647;49.382;7.078;2022-08-25T18:37:28;2.95;;;2.67;;
46899;SDS011;32647;49.382;7.078;2022-08-25T18:43:19;4.68;;;2.53;;
46899;SDS011;32647;49.382;7.078;2022-08-25T18:46:05;4.93;;;2.33;;
46899;SDS011;32647;49.382;7.078;2022-08-25T18:48:51;387.48;;;69.30;;
46899;SDS011;32647;49.382;7.078;2022-08-25T18:51:37;2.47;;;2.28;;
46899;SDS011;32647;49.382;7.078;2022-08-25T18:54:23;3.53;;;2.72;;
46899;SDS011;32647;49.382;7.078;2022-08-25T18:59:45;5.28;;;3.53;;
46899;SDS011;32647;49.382;7.078;2022-08-25T19:02:31;5.75;;;3.15;;
46899;SDS011;32647;49.382;7.078;2022-08-25T19:05:19;3.95;;;3.13;;